Time;durP1;ratioP1;P1;durP2;ratioP2;P2;SDS_P1;SDS_P2;PMS_P1;PMS_P2;Temp;Humidity;BMP_temperature;BMP_pressure;BME280_temperature;BME280_humidity;BME280_pressure;Samples;Min_cycle;Max_cycle;Signal;HPM_P1;HPM_P2
2022/01/02 00:01:59;;;;;;;2.47;0.73;;;14.70;67.90;;;;;;5130239;27;20299;-67
2022/01/02 00:04:29;;;;;;;3.25;1.27;;;14.70;67.90;;;;;;5128970;28;20498;-67
2022/01/02 00:06:59;;;;;;;1.55;0.70;;;14.70;67.90;;;;;;5129179;28;20108;-67
2022/01/02 00:09:33;;;;;;;;;;;14.70;67.90;;;;;;5129614;27;20040;-67
2022/01/02 00:12:10;;;;;;;1.60;0.88;;;14.70;67.90;;;;;;5129163;28;19915;-67
2022/01/02 00:14:37;;;;;;;1.40;0.80;;;14.70;67.90;;;;;;5129027;28;20031;-68
2022/01/02 00:17:05;;;;;;;1.77;0.95;;;14.70;68.00;;;;;;5130173;27;20390;-67
2022/01/02 00:19:32;;;;;;;2.42;0.68;;;14.70;67.90;;;;;;5128967;28;20260;-68
2022/01/02 00:22:01;;;;;;;1.75;0.93;;;14.70;67.90;;;;;;5130011;27;20045;-67
2022/01/02 00:24:29;;;;;;;1.40;0.63;;;14.70;67.90;;;;;;5128622;28;20046;-67
2022/01/02 00:26:56;;;;;;;1.35;0.80;;;14.70;67.90;;;;;;5128468;28;20039;-68
2022/01/02 00:29:23;;;;;;;1.27;0.60;;;14.70;67.90;;;;;;5128479;28;20047;-67
2022/01/02 00:31:48;;;;;;;1.50;0.70;;;14.70;67.90;;;;;;5128714;28;20046;-68
2022/01/02 00:34:15;;;;;;;2.45;0.75;;;14.70;68.00;;;;;;5128358;28;20479;-67
2022/01/02 00:36:42;;;;;;;1.42;1.00;;;14.60;67.90;;;;;;5128619;28;20459;-68
2022/01/02 00:39:07;;;;;;;1.92;0.93;;;14.70;68.00;;;;;;5129715;27;20089;-67
2022/01/02 00:47:10;;;;;;;1.70;0.63;;;14.70;68.00;;;;;;5130317;27;20885;-67
2022/01/02 00:49:40;;;;;;;1.75;0.98;;;14.70;68.00;;;;;;5129046;28;20036;-67
2022/01/02 00:52:17;;;;;;;2.40;0.77;;;14.70;68.00;;;;;;5129515;28;20035;-67
2022/01/02 00:54:45;;;;;;;2.10;1.20;;;14.60;68.00;;;;;;5129090;28;20218;-67
2022/01/02 00:57:17;;;;;;;1.45;1.02;;;14.70;68.00;;;;;;5128900;28;20282;-67
2022/01/02 01:02:28;;;;;;;2.25;0.95;;;14.70;68.10;;;;;;5089450;27;20356;-68
2022/01/02 01:04:58;;;;;;;1.33;0.70;;;14.70;68.90;;;;;;5088377;28;20048;-67
2022/01/02 01:07:25;;;;;;;1.38;0.60;;;14.60;68.10;;;;;;5088039;28;20068;-67
2022/01/02 01:09:55;;;;;;;1.30;1.00;;;14.60;68.10;;;;;;5087998;28;20048;-68
2022/01/02 01:12:21;;;;;;;1.77;0.73;;;14.60;68.10;;;;;;5087867;28;20400;-67
2022/01/02 01:14:47;;;;;;;1.27;0.63;;;14.60;68.10;;;;;;5087904;28;20033;-67
2022/01/02 01:17:15;;;;;;;2.95;1.40;;;14.70;68.20;;;;;;5089080;28;20392;-67
2022/01/02 01:19:42;;;;;;;2.28;1.17;;;14.70;68.20;;;;;;5088059;28;20507;-67
2022/01/02 01:22:08;;;;;;;1.13;0.82;;;14.70;68.20;;;;;;5087581;28;20483;-67
2022/01/02 01:24:35;;;;;;;1.48;0.70;;;14.60;68.20;;;;;;5089229;28;20093;-68
2022/01/02 01:27:04;;;;;;;2.67;0.70;;;14.60;68.20;;;;;;5089232;28;20385;-67
2022/01/02 01:29:34;;;;;;;1.35;0.88;;;14.60;68.20;;;;;;5087915;28;20040;-67
2022/01/02 01:32:02;;;;;;;2.10;0.95;;;14.60;68.20;;;;;;5088981;28;20183;-67
2022/01/02 01:34:28;;;;;;;1.92;0.93;;;14.60;68.20;;;;;;5088766;28;20059;-67
2022/01/02 01:36:53;;;;;;;1.50;0.98;;;14.60;68.20;;;;;;5087543;28;20605;-67
2022/01/02 01:39:19;;;;;;;2.00;0.95;;;14.60;68.20;;;;;;5088701;28;20033;-67
2022/01/02 01:41:50;;;;;;;1.65;0.82;;;14.60;68.20;;;;;;5088915;28;20059;-67
2022/01/02 01:46:56;;;;;;;1.45;0.70;;;14.60;68.20;;;;;;5130332;27;20752;-67
2022/01/02 01:52:01;;;;;;;2.95;0.98;;;14.60;68.20;;;;;;5130279;27;20917;-70
2022/01/02 01:54:27;;;;;;;2.60;1.13;;;14.60;68.20;;;;;;5129193;28;20047;-67
2022/01/02 01:56:53;;;;;;;3.78;1.13;;;14.60;68.20;;;;;;5128953;28;20065;-67
2022/01/02 01:59:20;;;;;;;2.15;0.80;;;14.60;68.20;;;;;;5128957;28;20454;-67
2022/01/02 02:01:48;;;;;;;2.55;0.80;;;14.60;68.30;;;;;;5128845;28;20487;-67
2022/01/02 02:04:13;;;;;;;2.35;0.82;;;14.60;68.30;;;;;;5129110;28;20075;-67
2022/01/02 02:06:39;;;;;;;1.80;1.00;;;14.60;68.30;;;;;;5128786;28;20055;-68
2022/01/02 02:09:07;;;;;;;1.75;0.80;;;14.60;68.30;;;;;;5128701;28;20051;-67
2022/01/02 02:11:37;;;;;;;3.10;1.20;;;14.60;68.30;;;;;;5128459;28;20483;-67
2022/01/02 02:14:04;;;;;;;2.43;1.27;;;14.60;68.30;;;;;;5128880;28;20039;-67
2022/01/02 02:16:31;;;;;;;2.33;1.30;;;14.60;68.30;;;;;;5128781;28;20281;-67
2022/01/02 02:18:57;;;;;;;2.35;0.85;;;14.60;68.30;;;;;;5128823;28;20039;-67
2022/01/02 02:21:32;;;;;;;3.47;1.30;;;14.60;68.40;;;;;;5129898;28;20092;-67
2022/01/02 02:23:58;;;;;;;2.42;0.70;;;14.60;68.40;;;;;;5128412;28;20039;-68
2022/01/02 02:26:24;;;;;;;1.77;0.88;;;14.60;68.40;;;;;;5128637;28;20126;-67
2022/01/02 02:28:50;;;;;;;2.95;1.10;;;14.60;68.30;;;;;;5128370;28;20492;-68
2022/01/02 02:31:15;;;;;;;1.50;0.80;;;14.60;68.40;;;;;;5128124;28;20085;-67
2022/01/02 02:33:41;;;;;;;1.60;0.63;;;14.60;68.40;;;;;;5129697;28;20046;-68
2022/01/02 02:36:08;;;;;;;1.45;0.88;;;14.60;68.50;;;;;;5128381;28;20046;-67
2022/01/02 02:38:34;;;;;;;3.17;1.00;;;14.60;68.40;;;;;;5129512;27;20051;-67
2022/01/02 02:40:59;;;;;;;3.40;1.10;;;14.60;68.50;;;;;;5127973;28;20039;-68
2022/01/02 02:43:31;;;;;;;1.88;1.00;;;14.60;68.50;;;;;;5128351;28;20040;-67
2022/01/02 02:49:02;;;;;;;3.15;1.20;;;14.60;68.60;;;;;;5129219;27;20043;-68
2022/01/02 02:54:15;;;;;;;2.13;0.88;;;14.60;68.50;;;;;;5089402;28;20425;-67
2022/01/02 02:56:43;;;;;;;1.45;0.95;;;14.60;68.50;;;;;;5088021;28;20544;-68
2022/01/02 02:59:12;;;;;;;2.55;1.15;;;14.60;68.50;;;;;;5088353;28;20063;-68
2022/01/02 03:01:39;;;;;;;2.67;1.02;;;14.60;68.50;;;;;;5089403;28;20415;-68
2022/01/02 03:04:05;;;;;;;2.00;0.73;;;14.60;68.60;;;;;;5087934;28;20040;-67
2022/01/02 03:06:31;;;;;;;3.22;1.42;;;14.50;68.50;;;;;;5088230;28;20040;-67
2022/01/02 03:09:03;;;;;;;1.80;0.85;;;14.60;68.60;;;;;;5088144;28;20040;-67
2022/01/02 03:11:30;;;;;;;3.38;1.00;;;14.60;68.50;;;;;;5087833;28;20074;-68
2022/01/02 03:13:59;;;;;;;1.63;0.98;;;14.60;68.60;;;;;;5089104;28;20036;-68
2022/01/02 03:16:24;;;;;;;2.80;0.90;;;14.60;68.60;;;;;;5088059;28;20036;-67
2022/01/02 03:18:50;;;;;;;2.00;0.70;;;14.60;68.60;;;;;;5087957;28;20448;-68
2022/01/02 03:21:16;;;;;;;2.00;0.80;;;14.60;68.60;;;;;;5088962;28;20391;-67
2022/01/02 03:23:42;;;;;;;2.72;1.05;;;14.60;68.60;;;;;;5087800;28;20489;-68
2022/01/02 03:26:08;;;;;;;2.47;1.08;;;14.60;68.70;;;;;;5087891;28;20379;-68
2022/01/02 03:28:33;;;;;;;1.90;0.70;;;14.50;68.60;;;;;;5087775;28;20097;-67
2022/01/02 03:30:59;;;;;;;2.10;0.88;;;14.60;68.60;;;;;;5087720;28;20403;-68
2022/01/02 03:33:25;;;;;;;1.88;1.10;;;14.50;68.50;;;;;;5087344;28;20074;-68
2022/01/02 03:35:50;;;;;;;2.35;1.23;;;14.50;68.60;;;;;;5087459;28;20064;-67
2022/01/02 03:38:16;;;;;;;2.65;1.60;;;14.60;68.60;;;;;;5088629;28;20044;-67
2022/01/02 03:40:42;;;;;;;2.22;1.38;;;14.50;68.60;;;;;;5087276;28;20594;-68
2022/01/02 03:43:08;;;;;;;2.45;0.90;;;14.60;68.60;;;;;;5087514;28;20373;-68
2022/01/02 03:45:37;;;;;;;4.13;1.08;;;14.50;68.60;;;;;;5087144;28;20047;-67
2022/01/02 03:48:03;;;;;;;2.35;0.70;;;14.60;68.70;;;;;;5088507;28;20046;-68
2022/01/02 03:50:28;;;;;;;2.63;0.82;;;14.60;68.60;;;;;;5088523;28;20434;-68
2022/01/02 03:52:57;;;;;;;1.30;1.02;;;14.60;68.60;;;;;;5086719;28;20050;-68
2022/01/02 03:55:23;;;;;;;3.05;1.20;;;14.60;68.70;;;;;;5088097;28;20127;-68
2022/01/02 03:57:48;;;;;;;4.07;1.60;;;14.60;68.70;;;;;;5087192;28;20040;-68
2022/01/02 04:00:15;;;;;;;3.55;0.80;;;14.60;68.70;;;;;;5087106;28;20064;-68
2022/01/02 04:02:42;;;;;;;2.20;1.05;;;14.60;68.70;;;;;;5088292;28;20047;-67
2022/01/02 04:05:09;;;;;;;2.67;1.40;;;14.50;68.60;;;;;;5076674;28;20037;-67
2022/01/02 04:07:36;;;;;;;2.17;1.02;;;14.50;68.60;;;;;;5056607;28;20098;-67
2022/01/02 04:10:05;;;;;;;2.60;1.05;;;14.60;68.70;;;;;;5073309;28;20048;-67
2022/01/02 04:12:32;;;;;;;2.13;1.00;;;14.50;68.70;;;;;;5073353;28;20503;-67
2022/01/02 04:14:57;;;;;;;2.45;0.82;;;14.50;68.70;;;;;;5074305;28;20044;-68
2022/01/02 04:17:23;;;;;;;3.28;1.08;;;14.50;68.70;;;;;;5074430;28;20040;-67
2022/01/02 04:19:50;;;;;;;5.68;1.23;;;14.50;69.40;;;;;;5073059;28;20036;-68
2022/01/02 04:22:16;;;;;;;5.43;1.48;;;14.50;68.70;;;;;;5074367;28;20445;-68
2022/01/02 04:24:42;;;;;;;2.08;1.00;;;14.50;68.70;;;;;;5074147;28;20040;-68
2022/01/02 04:27:07;;;;;;;2.30;1.00;;;14.50;68.80;;;;;;5072992;28;20040;-68
2022/01/02 04:29:33;;;;;;;2.83;0.80;;;14.50;68.80;;;;;;5072908;28;20297;-67
2022/01/02 04:31:59;;;;;;;1.77;0.70;;;14.50;68.80;;;;;;5072841;28;20051;-67
2022/01/02 04:34:24;;;;;;;2.30;0.88;;;14.50;68.80;;;;;;5072773;28;20040;-68
2022/01/02 04:36:50;;;;;;;1.70;0.93;;;14.50;68.80;;;;;;5074065;28;20139;-68
2022/01/02 04:39:16;;;;;;;3.80;1.20;;;14.50;68.80;;;;;;5072700;28;20041;-68
2022/01/02 04:41:42;;;;;;;2.88;0.93;;;14.50;68.80;;;;;;5072649;28;20515;-68
2022/01/02 04:44:08;;;;;;;1.67;0.60;;;14.50;68.80;;;;;;5072898;28;20048;-68
2022/01/02 04:46:33;;;;;;;3.50;1.75;;;14.50;68.80;;;;;;5073958;28;20028;-67
2022/01/02 04:48:59;;;;;;;3.00;0.80;;;14.50;68.70;;;;;;5072892;28;20110;-68
2022/01/02 04:51:28;;;;;;;2.17;0.93;;;14.50;68.80;;;;;;5072524;28;20288;-68
2022/01/02 04:53:54;;;;;;;2.00;1.00;;;14.50;68.80;;;;;;5072161;28;20049;-67
2022/01/02 04:56:19;;;;;;;2.53;1.27;;;14.50;68.80;;;;;;5073529;28;20120;-68
2022/01/02 04:58:45;;;;;;;2.85;1.75;;;14.60;68.90;;;;;;5073629;28;20036;-68
2022/01/02 05:01:12;;;;;;;3.20;0.88;;;14.50;68.90;;;;;;5072486;28;20032;-67
2022/01/02 05:03:38;;;;;;;2.92;1.02;;;14.50;68.90;;;;;;5072561;28;20048;-67
2022/01/02 05:06:05;;;;;;;3.40;1.20;;;14.50;68.90;;;;;;5073440;28;20040;-68
2022/01/02 05:08:34;;;;;;;2.20;0.82;;;14.50;68.90;;;;;;5072403;28;20043;-68
2022/01/02 05:10:59;;;;;;;3.17;0.90;;;14.50;68.90;;;;;;5072029;28;20171;-68
2022/01/02 05:13:28;;;;;;;1.90;0.85;;;14.60;68.90;;;;;;5073348;28;20048;-68
2022/01/02 05:15:54;;;;;;;2.45;0.77;;;14.50;68.90;;;;;;5071237;28;20436;-68
2022/01/02 05:18:19;;;;;;;2.70;0.98;;;14.50;69.00;;;;;;5073233;28;20071;-69
2022/01/02 05:20:48;;;;;;;3.08;0.85;;;14.60;69.00;;;;;;5072225;28;20064;-67
2022/01/02 05:23:15;;;;;;;4.05;1.08;;;14.60;69.00;;;;;;5072106;28;20036;-68
2022/01/02 05:25:40;;;;;;;2.13;1.05;;;14.50;69.00;;;;;;5072106;28;20037;-67
2022/01/02 05:28:06;;;;;;;1.83;0.70;;;14.50;69.00;;;;;;5071931;28;20472;-67
2022/01/02 05:30:32;;;;;;;1.63;1.00;;;14.50;69.00;;;;;;5073178;28;20553;-67
2022/01/02 05:32:57;;;;;;;3.58;1.00;;;14.50;69.00;;;;;;5072814;28;20041;-67
2022/01/02 05:35:23;;;;;;;1.58;0.73;;;14.50;69.00;;;;;;5071637;28;20059;-67
2022/01/02 05:37:49;;;;;;;2.53;0.85;;;14.50;69.00;;;;;;5071532;28;20052;-67
2022/01/02 05:40:14;;;;;;;3.28;0.93;;;14.50;69.00;;;;;;5071455;28;20040;-67
2022/01/02 05:42:43;;;;;;;3.17;0.95;;;14.50;69.10;;;;;;5071680;28;20056;-67
2022/01/02 05:45:09;;;;;;;3.17;0.90;;;14.50;69.10;;;;;;5071629;28;20045;-68
2022/01/02 05:47:37;;;;;;;2.50;0.60;;;14.60;69.20;;;;;;5071372;28;20044;-67
2022/01/02 05:50:03;;;;;;;2.35;0.73;;;14.60;69.10;;;;;;5071421;28;20529;-68
2022/01/02 05:52:31;;;;;;;1.38;0.85;;;14.60;69.20;;;;;;5072377;28;20131;-67
2022/01/02 05:54:57;;;;;;;4.50;0.82;;;14.50;69.10;;;;;;5071233;28;20032;-67
2022/01/02 05:57:23;;;;;;;1.60;0.70;;;14.60;69.20;;;;;;5072566;28;20032;-67
2022/01/02 05:59:48;;;;;;;4.30;1.02;;;14.60;69.20;;;;;;5071709;28;20063;-67
2022/01/02 06:02:14;;;;;;;3.08;1.08;;;14.60;69.30;;;;;;5071428;28;20459;-68
2022/01/02 06:04:40;;;;;;;5.35;1.30;;;14.60;69.30;;;;;;5072358;28;20112;-67
2022/01/02 06:07:05;;;;;;;3.65;0.95;;;14.60;69.40;;;;;;5072407;28;20082;-67
2022/01/02 06:09:31;;;;;;;2.33;0.90;;;14.50;69.30;;;;;;5071251;28;20047;-67
2022/01/02 06:11:57;;;;;;;2.95;0.82;;;14.60;69.50;;;;;;5070794;28;20127;-67
2022/01/02 06:14:25;;;;;;;2.58;0.80;;;14.50;69.40;;;;;;5071125;28;20040;-67
2022/01/02 06:16:51;;;;;;;4.05;1.27;;;14.60;69.50;;;;;;5071168;28;20111;-67
2022/01/02 06:19:16;;;;;;;3.53;0.85;;;14.60;69.50;;;;;;5071061;28;20510;-67
2022/01/02 06:21:42;;;;;;;3.05;0.75;;;14.60;69.50;;;;;;5070894;28;20044;-68
2022/01/02 06:24:08;;;;;;;3.67;0.77;;;14.60;69.50;;;;;;5072014;28;20072;-67
2022/01/02 06:26:34;;;;;;;2.95;0.85;;;14.60;69.50;;;;;;5071853;28;20114;-67
2022/01/02 06:29:03;;;;;;;3.58;0.73;;;14.60;69.50;;;;;;5072104;28;20035;-67
2022/01/02 06:31:30;;;;;;;4.53;0.90;;;14.60;69.60;;;;;;5071000;28;20041;-67
2022/01/02 06:33:56;;;;;;;3.88;1.17;;;14.60;69.50;;;;;;5071913;28;20278;-67
2022/01/02 06:36:22;;;;;;;1.98;0.70;;;14.60;69.60;;;;;;5072030;28;20112;-67
2022/01/02 06:38:47;;;;;;;2.67;1.00;;;14.60;69.60;;;;;;5070651;28;20571;-68
2022/01/02 06:41:13;;;;;;;2.88;0.90;;;14.60;69.60;;;;;;5070492;28;20037;-68
2022/01/02 06:43:40;;;;;;;3.00;1.10;;;14.60;69.60;;;;;;5070777;28;20043;-67
2022/01/02 06:46:06;;;;;;;3.95;0.63;;;14.60;69.60;;;;;;5070458;28;20055;-67
2022/01/02 06:48:35;;;;;;;3.65;0.90;;;14.60;69.60;;;;;;5071819;28;20032;-67
2022/01/02 06:51:01;;;;;;;2.03;0.77;;;14.60;69.60;;;;;;5070748;28;20136;-68
2022/01/02 06:53:27;;;;;;;2.92;0.82;;;14.60;69.60;;;;;;5071566;28;20131;-67
2022/01/02 06:55:53;;;;;;;1.77;0.65;;;14.60;70.30;;;;;;5071866;28;20423;-67
2022/01/02 06:58:18;;;;;;;1.98;0.60;;;14.60;69.60;;;;;;5071673;28;20040;-67
2022/01/02 07:00:44;;;;;;;2.90;0.90;;;14.60;69.60;;;;;;5070358;28;20036;-68
2022/01/02 07:03:10;;;;;;;2.30;0.82;;;14.60;69.60;;;;;;5071687;28;20040;-67
2022/01/02 07:05:36;;;;;;;4.43;0.80;;;14.60;69.60;;;;;;5071710;28;20422;-68
2022/01/02 07:08:02;;;;;;;3.53;0.73;;;14.60;69.60;;;;;;5070700;28;20546;-67
2022/01/02 07:10:27;;;;;;;4.32;0.77;;;14.60;69.60;;;;;;5070213;28;20053;-68
2022/01/02 07:12:53;;;;;;;2.58;0.80;;;14.60;69.60;;;;;;5071503;28;20045;-67
2022/01/02 07:15:19;;;;;;;2.70;0.80;;;14.60;69.60;;;;;;5071653;28;20024;-67
2022/01/02 07:17:45;;;;;;;2.35;0.50;;;14.60;69.60;;;;;;5070267;28;20044;-67
2022/01/02 07:20:12;;;;;;;3.13;0.77;;;14.60;69.60;;;;;;5070369;28;20166;-67
2022/01/02 07:22:40;;;;;;;2.60;0.90;;;14.60;69.60;;;;;;5070514;28;20055;-67
2022/01/02 07:25:07;;;;;;;6.53;0.88;;;14.60;69.60;;;;;;5071412;28;20044;-67
2022/01/02 07:27:32;;;;;;;1.13;0.40;;;14.60;69.60;;;;;;5070105;28;20041;-67
2022/01/02 07:29:59;;;;;;;2.58;0.77;;;14.60;69.60;;;;;;5071433;28;20098;-67
2022/01/02 07:32:25;;;;;;;2.92;0.73;;;14.60;69.60;;;;;;5071354;28;20040;-68
2022/01/02 07:34:50;;;;;;;2.25;0.80;;;14.60;69.60;;;;;;5070158;28;20583;-67
2022/01/02 07:37:17;;;;;;;1.83;1.20;;;14.60;69.60;;;;;;5071355;28;20192;-67
2022/01/02 07:39:42;;;;;;;1.33;0.75;;;14.60;69.60;;;;;;5072041;28;20162;-67
2022/01/02 07:42:08;;;;;;;4.22;0.90;;;14.60;69.60;;;;;;5073637;28;20494;-67
2022/01/02 07:44:36;;;;;;;3.97;0.98;;;14.60;69.60;;;;;;5073975;28;20044;-68
2022/01/02 07:47:02;;;;;;;3.95;1.00;;;14.60;69.60;;;;;;5073621;28;20050;-67
2022/01/02 07:49:28;;;;;;;2.83;0.85;;;14.60;69.60;;;;;;5075011;28;20044;-67
2022/01/02 07:51:54;;;;;;;1.65;0.95;;;14.60;69.60;;;;;;5074559;28;20037;-67
2022/01/02 07:54:19;;;;;;;3.28;1.25;;;14.60;69.60;;;;;;5073660;28;20052;-67
2022/01/02 07:56:45;;;;;;;3.10;0.60;;;14.60;69.60;;;;;;5074669;28;20094;-67
2022/01/02 07:59:12;;;;;;;3.05;1.25;;;14.60;69.60;;;;;;5075092;28;20429;-67
2022/01/02 08:01:38;;;;;;;2.00;0.70;;;14.60;69.60;;;;;;5073758;28;20036;-68
2022/01/02 08:04:03;;;;;;;2.05;0.68;;;14.60;69.60;;;;;;5073526;28;20045;-67
2022/01/02 08:06:29;;;;;;;1.70;0.70;;;14.60;69.50;;;;;;5074749;28;20054;-67
2022/01/02 08:08:55;;;;;;;2.28;1.08;;;14.60;69.50;;;;;;5073278;28;20400;-67
2022/01/02 08:11:21;;;;;;;2.28;0.63;;;14.60;69.50;;;;;;5073369;28;20045;-67
2022/01/02 08:13:47;;;;;;;3.60;0.95;;;14.60;69.50;;;;;;5073044;28;20048;-67
2022/01/02 08:16:13;;;;;;;2.65;0.52;;;14.60;69.50;;;;;;5073438;28;20123;-67
2022/01/02 08:18:40;;;;;;;3.05;0.98;;;14.60;69.50;;;;;;5073058;28;20082;-67
2022/01/02 08:21:07;;;;;;;3.55;0.75;;;14.60;69.50;;;;;;5073036;28;20072;-67
2022/01/02 08:23:34;;;;;;;2.15;0.70;;;14.60;69.50;;;;;;5074303;28;20051;-67
2022/01/02 08:26:00;;;;;;;2.20;0.68;;;14.60;69.50;;;;;;5074327;28;20033;-67
2022/01/02 08:28:29;;;;;;;2.97;0.93;;;14.60;69.50;;;;;;5074215;28;20221;-67
2022/01/02 08:30:54;;;;;;;1.50;0.60;;;14.60;69.50;;;;;;5072975;28;20048;-67
2022/01/02 08:33:20;;;;;;;2.30;0.90;;;14.60;69.50;;;;;;5072796;28;20124;-67
2022/01/02 08:35:48;;;;;;;2.78;0.80;;;14.60;69.60;;;;;;5073159;28;20045;-68
2022/01/02 08:38:14;;;;;;;2.58;0.80;;;14.60;69.60;;;;;;5074061;28;20290;-67
2022/01/02 08:40:40;;;;;;;2.05;0.80;;;14.60;69.60;;;;;;5072797;28;20037;-67
2022/01/02 08:43:07;;;;;;;2.28;0.90;;;14.60;69.50;;;;;;5072548;28;20093;-67
2022/01/02 08:45:35;;;;;;;3.17;0.80;;;14.50;69.50;;;;;;5072640;28;20055;-67
2022/01/02 08:48:01;;;;;;;3.40;0.82;;;14.60;69.50;;;;;;5072842;28;20058;-67
2022/01/02 08:50:27;;;;;;;2.15;0.90;;;14.60;69.50;;;;;;5072507;28;20044;-67
2022/01/02 08:52:56;;;;;;;1.73;0.80;;;14.50;69.50;;;;;;5073494;28;20143;-67
2022/01/02 08:55:22;;;;;;;1.83;0.63;;;14.60;69.50;;;;;;5072451;28;20557;-67
2022/01/02 08:57:47;;;;;;;5.75;0.80;;;14.60;69.50;;;;;;5073619;28;20036;-67
2022/01/02 09:00:14;;;;;;;2.03;0.70;;;14.60;69.50;;;;;;5072345;28;20044;-67
2022/01/02 09:02:40;;;;;;;3.40;0.80;;;14.60;69.60;;;;;;5072670;28;20040;-67
2022/01/02 09:05:06;;;;;;;2.72;1.17;;;14.50;69.50;;;;;;5072223;28;20435;-67
2022/01/02 09:07:32;;;;;;;3.25;1.13;;;14.50;69.60;;;;;;5072279;28;20044;-67
2022/01/02 09:09:58;;;;;;;2.17;1.10;;;14.60;69.60;;;;;;5073379;28;20086;-68
2022/01/02 09:12:24;;;;;;;2.22;1.08;;;14.50;69.50;;;;;;5072499;28;20075;-67
2022/01/02 09:14:49;;;;;;;2.40;0.75;;;14.50;69.50;;;;;;5072237;28;20040;-67
2022/01/02 09:17:15;;;;;;;2.65;0.80;;;14.60;69.60;;;;;;5072336;28;20044;-67
2022/01/02 09:19:41;;;;;;;2.22;1.00;;;14.50;69.50;;;;;;5073285;28;20452;-67
2022/01/02 09:22:06;;;;;;;2.58;0.90;;;14.50;69.50;;;;;;5071913;28;20102;-67
2022/01/02 09:24:32;;;;;;;4.82;1.08;;;14.60;69.60;;;;;;5073128;28;20106;-68
2022/01/02 09:26:58;;;;;;;3.65;1.17;;;14.60;69.60;;;;;;5071866;28;20396;-67
2022/01/02 09:29:24;;;;;;;1.88;0.70;;;14.60;69.60;;;;;;5071997;28;20032;-67
2022/01/02 09:31:50;;;;;;;1.80;0.65;;;14.60;69.60;;;;;;5071817;28;20043;-67
2022/01/02 09:34:16;;;;;;;4.97;0.80;;;14.50;69.50;;;;;;5071576;28;20127;-67
2022/01/02 09:36:42;;;;;;;2.90;0.85;;;14.60;69.60;;;;;;5071936;28;20139;-67
2022/01/02 09:39:08;;;;;;;3.17;1.10;;;14.60;70.30;;;;;;5072944;28;20297;-67
2022/01/02 09:41:33;;;;;;;3.78;1.15;;;14.60;69.60;;;;;;5071771;28;20051;-67
2022/01/02 09:44:00;;;;;;;2.00;0.85;;;14.60;69.60;;;;;;5072729;28;20123;-67
2022/01/02 09:46:27;;;;;;;3.60;0.90;;;14.60;69.60;;;;;;5072725;28;20752;-67
2022/01/02 09:48:54;;;;;;;3.40;0.75;;;14.60;69.60;;;;;;5072713;28;20043;-67
2022/01/02 09:51:25;;;;;;;2.72;1.58;;;14.60;69.60;;;;;;5071608;28;20482;-67
2022/01/02 09:53:52;;;;;;;3.22;0.70;;;14.60;69.60;;;;;;5070937;28;20053;-67
2022/01/02 09:56:18;;;;;;;2.30;0.65;;;14.60;69.50;;;;;;5071262;28;20048;-67
2022/01/02 09:58:44;;;;;;;2.97;0.70;;;14.50;69.50;;;;;;5071201;28;20519;-67
2022/01/02 10:03:59;;;;;;;2.03;1.08;;;14.60;69.50;;;;;;5114170;27;1195729;-67
2022/01/02 10:06:47;;;;;;;2.38;0.88;;;14.60;69.50;;;;;;5112042;28;20134;-67
2022/01/02 10:09:37;;;;;;;3.50;0.90;;;14.60;69.50;;;;;;5111708;28;20046;-68
2022/01/02 10:12:25;;;;;;;3.63;0.98;;;14.60;69.40;;;;;;5111707;28;20040;-67
2022/01/02 10:18:06;;;;;;;1.90;0.90;;;14.60;69.40;;;;;;5089382;28;20447;-67
2022/01/02 10:20:42;;;;;;;1.55;0.98;;;14.60;69.40;;;;;;5088227;28;20052;-67
2022/01/02 10:23:16;;;;;;;2.55;0.98;;;14.60;69.30;;;;;;5088382;28;20432;-67
2022/01/02 10:25:45;;;;;;;2.10;0.70;;;14.60;69.30;;;;;;5088349;28;20040;-67
2022/01/02 10:28:21;;;;;;;2.10;0.83;;;14.60;69.30;;;;;;5088180;28;20087;-67
2022/01/02 10:30:49;;;;;;;1.90;0.98;;;14.60;69.30;;;;;;5088041;28;20283;-68
2022/01/02 10:33:15;;;;;;;1.58;0.95;;;14.60;69.30;;;;;;5087795;28;20071;-67
2022/01/02 10:35:44;;;;;;;2.50;0.73;;;14.60;69.20;;;;;;5088058;28;20075;-67
2022/01/02 10:38:18;;;;;;;2.13;0.63;;;14.70;69.20;;;;;;5089050;28;20028;-67
2022/01/02 10:40:49;;;;;;;2.42;0.63;;;14.70;69.20;;;;;;5071291;28;20543;-67
2022/01/02 10:43:33;;;;;;;3.55;1.52;;;14.60;69.10;;;;;;5089108;28;20064;-67
2022/01/02 10:46:03;;;;;;;2.58;0.80;;;14.60;69.10;;;;;;5089359;28;20040;-67
2022/01/02 10:48:32;;;;;;;2.37;1.10;;;14.60;69.00;;;;;;5088919;28;20040;-67
2022/01/02 10:51:00;;;;;;;1.70;0.45;;;14.60;69.00;;;;;;5088841;28;20270;-67
2022/01/02 10:53:27;;;;;;;4.28;0.90;;;14.70;69.10;;;;;;5087446;28;20072;-67
2022/01/02 10:55:53;;;;;;;2.72;0.77;;;14.60;69.00;;;;;;5089226;28;20036;-68
2022/01/02 10:58:18;;;;;;;2.45;1.30;;;14.70;69.00;;;;;;5087624;28;20054;-67
2022/01/02 11:00:44;;;;;;;2.67;0.93;;;14.70;68.90;;;;;;5087731;28;20052;-67
2022/01/02 11:03:13;;;;;;;2.08;0.88;;;14.70;68.90;;;;;;5088667;28;20033;-68
2022/01/02 11:05:44;;;;;;;2.33;0.82;;;14.70;68.80;;;;;;5087293;28;20047;-67
2022/01/02 11:08:12;;;;;;;3.72;1.13;;;14.70;68.80;;;;;;5087177;28;20502;-67
2022/01/02 11:10:38;;;;;;;1.80;0.95;;;14.70;68.80;;;;;;5088604;28;20115;-67
2022/01/02 11:13:06;;;;;;;2.47;1.10;;;14.70;68.80;;;;;;5088381;28;20079;-67
2022/01/02 11:15:33;;;;;;;2.50;0.75;;;14.70;68.70;;;;;;5088010;28;20079;-67
2022/01/02 11:17:59;;;;;;;2.60;0.60;;;14.70;68.80;;;;;;5086948;28;20055;-67
2022/01/02 11:23:14;;;;;;;1.80;0.90;;;14.70;68.70;;;;;;5089430;28;20851;-67
2022/01/02 11:28:47;;;;;;;2.35;0.98;;;14.70;68.80;;;;;;5130130;27;20403;-67
2022/01/02 11:31:28;;;;;;;2.97;0.80;;;14.70;68.80;;;;;;5129177;28;20096;-67
2022/01/02 11:33:54;;;;;;;2.03;1.02;;;14.70;68.80;;;;;;5129110;28;20082;-67
2022/01/02 11:39:06;;;;;;;2.45;0.88;;;14.70;68.70;;;;;;5130255;27;20411;-67
2022/01/02 11:44:18;;;;;;;2.15;0.73;;;14.70;68.80;;;;;;5152576;27;1168698;-67
2022/01/02 11:52:22;;;;;;;2.60;1.00;;;14.70;68.80;;;;;;5048678;27;1157060;-67
2022/01/02 11:54:49;;;;;;;;;;;14.70;68.70;;;;;;5068371;28;20041;-67
2022/01/02 11:59:59;;;;;;;2.90;0.82;;;14.70;68.70;;;;;;5150877;27;20571;-67
2022/01/02 12:07:53;;;;;;;2.65;1.10;;;14.70;68.60;;;;;;5130322;27;20390;-67
2022/01/02 12:18:29;;;;;;;3.28;1.30;;;14.70;68.70;;;;;;5130295;27;20386;-67
2022/01/02 12:31:44;;;;;;;3.85;1.20;;;14.70;68.60;;;;;;5130240;27;20885;-67
2022/01/02 12:36:50;;;;;;;2.58;1.08;;;14.70;68.60;;;;;;5130516;27;20383;-67
2022/01/02 12:42:08;;;;;;;3.90;1.10;;;14.70;68.60;;;;;;5130281;27;20354;-67
2022/01/02 12:44:36;;;;;;;3.25;0.70;;;14.70;69.30;;;;;;5128812;28;20039;-69
2022/01/02 12:47:04;;;;;;;2.78;1.15;;;14.70;68.50;;;;;;5128895;28;20050;-67
2022/01/02 12:49:34;;;;;;;2.55;0.98;;;14.70;68.50;;;;;;5130167;27;20446;-67
2022/01/02 12:54:49;;;;;;;2.88;0.75;;;14.70;68.50;;;;;;5151020;27;20117;-68
2022/01/02 12:57:16;;;;;;;3.67;0.90;;;14.70;68.40;;;;;;5129010;28;20047;-68
2022/01/02 12:59:50;;;;;;;3.55;2.22;;;14.70;68.40;;;;;;5128946;28;20074;-67
2022/01/02 13:02:21;;;;;;;4.55;0.70;;;14.70;68.30;;;;;;5128944;28;20114;-67
2022/01/02 13:04:56;;;;;;;4.63;1.00;;;14.70;68.40;;;;;;5129175;28;20127;-67
2022/01/02 13:10:17;;;;;;;3.63;1.07;;;14.70;68.30;;;;;;5151521;27;1200196;-67
2022/01/02 13:12:45;;;;;;;2.63;1.02;;;14.80;68.30;;;;;;5153011;27;20845;-67
2022/01/02 13:15:12;;;;;;;2.17;0.70;;;14.80;68.20;;;;;;5153014;27;20042;-67
2022/01/02 13:17:43;;;;;;;3.20;0.82;;;14.80;68.20;;;;;;5152962;27;20050;-67
2022/01/02 13:20:20;;;;;;;5.35;1.15;;;14.70;68.10;;;;;;5152877;27;20038;-68
2022/01/02 13:22:52;;;;;;;3.17;0.80;;;14.80;68.10;;;;;;5152837;27;20039;-67
2022/01/02 13:25:27;;;;;;;4.22;0.75;;;14.70;68.10;;;;;;5153212;27;20085;-67
2022/01/02 13:30:38;;;;;;;2.28;0.77;;;14.70;68.00;;;;;;5150963;27;20357;-67
2022/01/02 13:33:18;;;;;;;4.70;0.80;;;14.80;68.00;;;;;;5128923;28;20043;-67
2022/01/02 13:35:43;;;;;;;5.72;1.15;;;14.80;68.00;;;;;;5129026;28;20138;-67
2022/01/02 13:38:11;;;;;;;2.70;1.15;;;14.70;67.90;;;;;;5128713;28;20097;-67
2022/01/02 13:40:38;;;;;;;3.95;0.60;;;14.70;68.00;;;;;;5128828;28;20073;-67
2022/01/02 13:43:09;;;;;;;2.30;1.17;;;14.70;67.90;;;;;;5128953;28;20062;-67
2022/01/02 13:45:39;;;;;;;3.10;0.88;;;14.80;67.90;;;;;;5129984;27;20027;-67
2022/01/02 13:50:53;;;;;;;4.20;0.85;;;14.70;67.90;;;;;;5152691;27;1167895;-67
2022/01/02 13:53:21;;;;;;;3.45;0.63;;;14.70;67.90;;;;;;5153138;27;20057;-67
2022/01/02 13:55:50;;;;;;;4.03;0.63;;;14.80;67.90;;;;;;5153303;27;20042;-67
2022/01/02 14:01:01;;;;;;;4.50;1.52;;;14.70;67.90;;;;;;5152755;27;1165799;-67
2022/01/02 14:03:40;;;;;;;4.43;0.88;;;14.70;67.90;;;;;;5153306;27;20046;-67
2022/01/02 14:06:11;;;;;;;5.45;1.75;;;14.70;67.90;;;;;;5171714;27;20446;-67
2022/01/02 14:08:46;;;;;;;4.45;1.00;;;14.60;67.80;;;;;;5171781;27;20042;-67
2022/01/02 14:11:19;;;;;;;4.25;0.80;;;14.70;67.90;;;;;;5171851;27;20078;-67
2022/01/02 14:19:14;;;;;;;6.07;1.35;;;14.70;67.90;;;;;;5111886;27;1153320;-67
2022/01/02 14:21:43;;;;;;;4.35;0.82;;;14.70;67.90;;;;;;5112097;28;20129;-67
2022/01/02 14:24:10;;;;;;;4.65;0.90;;;14.60;67.80;;;;;;5111735;28;20067;-67